Time;durP1;ratioP1;P1;durP2;ratioP2;P2;SDS_P1;SDS_P2;PMS_P1;PMS_P2;Temp;Humidity;BMP_temperature;BMP_pressure;BME280_temperature;BME280_humidity;BME280_pressure;Samples;Min_cycle;Max_cycle;Signal;HPM_P1;HPM_P2
2022/12/31 00:01:09;;;;;;;0.00;0.00;;;;;;;;;;5001386;28;20420;-90
2022/12/31 00:03:36;;;;;;;0.00;0.00;;;;;;;;;;5035632;28;20029;-91
2022/12/31 00:06:16;;;;;;;0.00;0.00;;;13.00;99.90;;;;;;5016727;28;20126;-91
2022/12/31 00:08:43;;;;;;;0.00;0.00;;;13.00;99.90;;;;;;5028205;28;20030;-89
2022/12/31 00:11:09;;;;;;;0.00;0.00;;;;;;;;;;5015207;28;20030;-91
2022/12/31 00:13:35;;;;;;;0.00;0.00;;;13.00;99.90;;;;;;5024678;28;20385;-91
2022/12/31 00:16:12;;;;;;;0.00;0.00;;;13.00;99.90;;;;;;4990859;28;20118;-89
2022/12/31 00:18:38;;;;;;;0.00;0.00;;;;;;;;;;5019535;28;20036;-89
2022/12/31 00:21:07;;;;;;;0.00;0.00;;;13.00;99.90;;;;;;5018000;28;20030;-92
2022/12/31 00:23:33;;;;;;;0.00;0.00;;;;;;;;;;5020104;28;20025;-91
2022/12/31 00:26:08;;;;;;;0.00;0.00;;;12.90;99.90;;;;;;5016008;28;20029;-91
2022/12/31 00:28:34;;;;;;;0.00;0.00;;;;;;;;;;5016226;28;20095;-90
2022/12/31 00:31:17;;;;;;;0.00;0.00;;;12.90;99.90;;;;;;5017303;28;20029;-91
2022/12/31 00:33:43;;;;;;;0.00;0.00;;;;;;;;;;4997802;28;20118;-91
2022/12/31 00:36:09;;;;;;;0.10;0.10;;;;;;;;;;5017319;28;20025;-91
2022/12/31 00:38:37;;;;;;;0.00;0.00;;;13.00;99.90;;;;;;5018062;28;20032;-91
2022/12/31 00:41:03;;;;;;;0.00;0.00;;;;;;;;;;5001321;28;20038;-91
2022/12/31 00:43:30;;;;;;;0.00;0.00;;;;;;;;;;5018102;28;20480;-91
2022/12/31 00:45:55;;;;;;;0.00;0.00;;;;;;;;;;5010670;28;20033;-90
2022/12/31 00:48:22;;;;;;;0.08;0.08;;;;;;;;;;5027142;28;20026;-91
2022/12/31 00:50:48;;;;;;;0.00;0.00;;;;;;;;;;5026123;28;20061;-91
2022/12/31 00:53:14;;;;;;;0.00;0.00;;;;;;;;;;5009634;28;20123;-90
2022/12/31 00:55:40;;;;;;;0.00;0.00;;;;;;;;;;5032561;28;20079;-91
2022/12/31 00:58:06;;;;;;;0.00;0.00;;;;;;;;;;5021172;28;20033;-92
2022/12/31 01:00:32;;;;;;;0.00;0.00;;;;;;;;;;5017566;28;20026;-91
2022/12/31 01:02:58;;;;;;;0.00;0.00;;;;;;;;;;5017205;28;20109;-89
2022/12/31 01:05:24;;;;;;;0.00;0.00;;;;;;;;;;5014532;28;20096;-89
2022/12/31 01:07:50;;;;;;;0.00;0.00;;;;;;;;;;5024306;28;20029;-89
2022/12/31 01:11:17;;;;;;;0.00;0.00;;;;;;;;;;5032052;28;20423;-89
2022/12/31 01:13:02;;;;;;;0.00;0.00;;;;;;;;;;5026321;28;20034;-90
2022/12/31 01:15:28;;;;;;;0.00;0.00;;;;;;;;;;5022792;28;20042;-90
2022/12/31 01:17:54;;;;;;;0.00;0.00;;;;;;;;;;5010904;28;20030;-90
2022/12/31 01:20:20;;;;;;;0.00;0.00;;;;;;;;;;5014604;28;20025;-90
2022/12/31 01:22:46;;;;;;;0.00;0.00;;;;;;;;;;5019126;28;20044;-91
2022/12/31 01:25:12;;;;;;;0.00;0.00;;;;;;;;;;5018883;28;20104;-90
2022/12/31 01:27:38;;;;;;;0.00;0.00;;;;;;;;;;5021421;28;20063;-89
2022/12/31 01:30:04;;;;;;;0.00;0.00;;;12.70;99.90;;;;;;5016768;28;20457;-91
2022/12/31 01:32:30;;;;;;;0.00;0.00;;;;;;;;;;5017145;28;20499;-92
2022/12/31 01:34:56;;;;;;;0.00;0.00;;;;;;;;;;5017100;28;20029;-91
2022/12/31 01:37:22;;;;;;;0.00;0.00;;;;;;;;;;5016973;28;20029;-92
2022/12/31 01:39:48;;;;;;;0.00;0.00;;;;;;;;;;5014933;28;20030;-90
2022/12/31 01:42:14;;;;;;;0.00;0.00;;;;;;;;;;5009990;28;20030;-90
2022/12/31 01:44:40;;;;;;;0.00;0.00;;;;;;;;;;5005628;28;20041;-90
2022/12/31 01:47:14;;;;;;;0.00;0.00;;;12.80;99.90;;;;;;5016643;28;20037;-89
2022/12/31 01:49:40;;;;;;;0.00;0.00;;;;;;;;;;5010043;28;20476;-91
2022/12/31 01:52:06;;;;;;;0.00;0.00;;;;;;;;;;5023024;28;20083;-90
2022/12/31 01:54:36;;;;;;;0.00;0.00;;;12.50;99.90;;;;;;5009443;28;20498;-91
2022/12/31 01:57:04;;;;;;;;;;;12.10;99.90;;;;;;5006280;28;20026;-93
2022/12/31 01:59:30;;;;;;;0.00;0.00;;;;;;;;;;5030703;28;19909;-91
2022/12/31 02:01:56;;;;;;;0.00;0.00;;;;;;;;;;5014512;28;20033;-91
2022/12/31 02:04:23;;;;;;;0.00;0.00;;;12.60;99.90;;;;;;5023792;28;20506;-92
2022/12/31 02:06:55;;;;;;;0.00;0.00;;;12.50;99.90;;;;;;5020100;28;20029;-91
2022/12/31 02:09:20;;;;;;;0.00;0.00;;;;;;;;;;5015426;28;20081;-90
2022/12/31 02:11:46;;;;;;;0.00;0.00;;;;;;;;;;5009515;28;20037;-91
2022/12/31 02:14:15;;;;;;;0.00;0.00;;;12.70;99.90;;;;;;5008178;28;20036;-91
2022/12/31 02:17:11;;;;;;;0.00;0.00;;;12.60;99.90;;;;;;5009660;28;20399;-89
2022/12/31 02:19:59;;;;;;;0.00;0.00;;;12.70;99.90;;;;;;5010154;28;20061;-92
2022/12/31 02:22:27;;;;;;;0.00;0.00;;;12.60;99.90;;;;;;5011425;28;20049;-89
2022/12/31 02:25:00;;;;;;;0.00;0.00;;;12.60;99.90;;;;;;5014059;28;20471;-92
2022/12/31 02:27:36;;;;;;;0.00;0.00;;;12.60;99.90;;;;;;5012855;28;20034;-91
2022/12/31 02:30:07;;;;;;;0.00;0.00;;;12.70;99.90;;;;;;5033718;28;20052;-91
2022/12/31 02:32:45;;;;;;;0.00;0.00;;;12.60;99.90;;;;;;5019969;28;20040;-92
2022/12/31 02:35:23;;;;;;;0.00;0.00;;;12.60;99.90;;;;;;5019878;28;20013;-92
2022/12/31 02:37:54;;;;;;;0.00;0.00;;;12.70;99.90;;;;;;5016824;28;20026;-90
2022/12/31 02:40:21;;;;;;;0.00;0.00;;;12.60;99.90;;;;;;5019180;28;20029;-90
2022/12/31 02:42:47;;;;;;;0.00;0.00;;;;;;;;;;5009815;28;20026;-92
2022/12/31 02:45:16;;;;;;;0.00;0.00;;;12.60;99.90;;;;;;5016620;28;20117;-91
2022/12/31 02:48:25;;;;;;;0.00;0.00;;;12.60;99.90;;;;;;5018936;28;20053;-91
2022/12/31 02:51:03;;;;;;;0.00;0.00;;;12.70;99.90;;;;;;5016202;28;20037;-91
2022/12/31 02:53:51;;;;;;;0.00;0.00;;;12.70;99.90;;;;;;5022746;28;20288;-91
2022/12/31 02:56:47;;;;;;;0.00;0.00;;;12.70;99.90;;;;;;5031725;28;20079;-91
2022/12/31 06:08:33;;;;;;;0.00;0.00;;;12.60;99.90;;;;;;5009776;28;20104;-91
2022/12/31 06:10:59;;;;;;;0.00;0.00;;;;;;;;;;4988928;28;20022;-90
2022/12/31 06:13:25;;;;;;;0.00;0.00;;;;;;;;;;5014463;28;20120;-91
2022/12/31 06:15:51;;;;;;;0.00;0.00;;;12.80;99.90;;;;;;5005299;28;20060;-92
2022/12/31 06:18:16;;;;;;;0.00;0.00;;;12.70;99.90;;;;;;4993128;28;20022;-90
2022/12/31 09:04:18;;;;;;;0.00;0.00;;;14.40;99.90;;;;;;4992357;28;20144;-93
2022/12/31 09:06:53;;;;;;;0.00;0.00;;;14.60;99.90;;;;;;4990239;28;20433;-91
2022/12/31 09:09:26;;;;;;;0.00;0.00;;;14.60;99.90;;;;;;4986169;28;20033;-90
2022/12/31 09:12:15;;;;;;;0.00;0.00;;;14.70;99.90;;;;;;4974322;28;20030;-93
2022/12/31 09:14:46;;;;;;;0.00;0.00;;;14.80;99.90;;;;;;4982883;28;20037;-92
2022/12/31 11:08:46;;;;;;;0.00;0.00;;;16.40;99.90;;;;;;5027217;28;20053;-91
2022/12/31 11:11:43;;;;;;;0.00;0.00;;;16.40;99.90;;;;;;5024418;28;20022;-92
2022/12/31 11:14:48;;;;;;;0.00;0.00;;;16.40;99.90;;;;;;5030480;28;20752;-91
2022/12/31 11:17:47;;;;;;;0.00;0.00;;;16.40;99.90;;;;;;5032484;28;20029;-89
2022/12/31 13:47:35;;;;;;;0.00;0.00;;;16.90;99.90;;;;;;695780;22;21606;-89
2022/12/31 13:50:18;;;;;;;0.00;0.00;;;17.00;99.90;;;;;;5030182;28;20053;-90
2022/12/31 13:53:03;;;;;;;0.00;0.00;;;16.90;99.90;;;;;;5029925;28;20057;-90
2022/12/31 13:55:35;;;;;;;0.00;0.00;;;16.90;99.90;;;;;;5027211;28;20381;-91
2022/12/31 13:58:34;;;;;;;0.00;0.00;;;16.80;99.90;;;;;;5028599;28;20108;-91
2022/12/31 14:16:32;;;;;;;;;;;16.40;99.90;;;;;;5031087;28;20060;-89
2022/12/31 14:19:20;;;;;;;0.00;0.00;;;16.40;99.90;;;;;;5019040;28;19912;-91
2022/12/31 14:21:58;;;;;;;0.10;0.10;;;16.40;99.90;;;;;;5005873;28;20038;-91
2022/12/31 14:24:49;;;;;;;0.00;0.00;;;18.50;99.90;;;;;;5010298;28;20029;-90
2022/12/31 14:27:25;;;;;;;0.00;0.00;;;16.30;99.90;;;;;;4989474;28;22171;-90
2022/12/31 14:30:05;;;;;;;0.10;0.10;;;16.20;99.90;;;;;;4986844;28;20198;-89
2022/12/31 14:32:59;;;;;;;0.00;0.00;;;16.20;99.90;;;;;;4991983;28;20033;-90
2022/12/31 14:35:39;;;;;;;0.00;0.00;;;16.20;99.90;;;;;;5006570;28;20072;-90
2022/12/31 14:38:05;;;;;;;0.00;0.00;;;;;;;;;;5002099;28;20026;-91
2022/12/31 14:40:33;;;;;;;0.00;0.00;;;16.20;99.90;;;;;;5013920;28;20115;-93
2022/12/31 14:42:59;;;;;;;0.00;0.00;;;;;;;;;;5022509;28;20041;-91
2022/12/31 14:46:05;;;;;;;0.00;0.00;;;16.20;99.90;;;;;;5015343;28;20030;-92
2022/12/31 14:48:31;;;;;;;0.00;0.00;;;;;;;;;;5034497;28;20014;-90
2022/12/31 14:51:01;;;;;;;0.00;0.00;;;16.20;99.90;;;;;;5019745;28;20049;-88
2022/12/31 14:53:28;;;;;;;0.00;0.00;;;16.10;99.90;;;;;;5017650;28;20030;-91
2022/12/31 14:56:05;;;;;;;0.00;0.00;;;15.80;99.90;;;;;;5037574;28;20048;-91
2022/12/31 14:58:41;;;;;;;0.00;0.00;;;16.10;99.90;;;;;;5014962;28;20013;-91
2022/12/31 15:01:27;;;;;;;0.00;0.00;;;16.10;99.90;;;;;;5025469;28;20042;-92
2022/12/31 15:03:56;;;;;;;0.00;0.00;;;16.10;99.90;;;;;;5017852;28;20022;-91
2022/12/31 15:06:22;;;;;;;0.00;0.00;;;;;;;;;;5018172;28;20010;-91
2022/12/31 15:09:16;;;;;;;0.00;0.00;;;16.00;99.90;;;;;;5021504;28;20022;-90
2022/12/31 15:11:42;;;;;;;0.00;0.00;;;;;;;;;;5016201;28;20018;-91
2022/12/31 15:14:41;;;;;;;0.00;0.00;;;15.90;99.90;;;;;;5010484;28;20064;-91
2022/12/31 15:17:32;;;;;;;0.00;0.00;;;15.90;99.90;;;;;;5006494;28;20026;-91
2022/12/31 15:20:16;;;;;;;0.00;0.00;;;15.90;99.90;;;;;;5014948;28;20044;-88
2022/12/31 15:22:50;;;;;;;0.00;0.00;;;15.80;99.90;;;;;;5032007;28;20026;-92
2022/12/31 15:25:27;;;;;;;0.00;0.00;;;15.70;99.90;;;;;;5018783;28;20082;-92
2022/12/31 15:27:55;;;;;;;0.00;0.00;;;15.70;99.90;;;;;;5023627;28;20025;-92
2022/12/31 15:30:44;;;;;;;0.00;0.00;;;15.70;99.90;;;;;;5015199;28;20010;-91
2022/12/31 15:33:51;;;;;;;0.05;0.05;;;15.70;99.90;;;;;;5013265;28;20060;-91
2022/12/31 15:36:20;;;;;;;0.08;0.08;;;15.50;99.90;;;;;;5010217;28;20045;-92
2022/12/31 15:38:47;;;;;;;0.00;0.00;;;15.50;99.90;;;;;;5013110;28;20064;-91
2022/12/31 15:41:17;;;;;;;0.00;0.00;;;15.40;99.90;;;;;;5027208;28;20018;-91
2022/12/31 15:43:57;;;;;;;0.00;0.00;;;15.40;99.90;;;;;;5020067;28;20098;-91
2022/12/31 15:46:27;;;;;;;0.10;0.10;;;15.40;99.90;;;;;;5020839;28;20097;-90
2022/12/31 15:49:08;;;;;;;0.00;0.00;;;15.40;99.90;;;;;;5024661;28;20029;-92
2022/12/31 15:51:52;;;;;;;0.00;0.00;;;15.30;99.90;;;;;;5024832;28;20030;-92
2022/12/31 15:54:28;;;;;;;0.00;0.00;;;15.30;99.90;;;;;;5016331;28;20021;-90
2022/12/31 15:56:54;;;;;;;0.00;0.00;;;;;;;;;;5013327;28;20041;-92
2022/12/31 15:59:21;;;;;;;0.00;0.00;;;15.30;99.90;;;;;;5008857;28;20124;-91
2022/12/31 16:01:47;;;;;;;0.00;0.00;;;;;;;;;;5014183;28;20038;-91
2022/12/31 16:04:17;;;;;;;0.00;0.00;;;15.30;99.90;;;;;;5006159;28;20030;-92
2022/12/31 16:06:44;;;;;;;0.00;0.00;;;15.30;99.90;;;;;;4995423;28;20037;-91
2022/12/31 16:09:18;;;;;;;0.00;0.00;;;15.40;99.90;;;;;;4996567;28;20054;-90
2022/12/31 16:11:44;;;;;;;0.00;0.00;;;;;;;;;;5013006;28;20030;-90
2022/12/31 16:14:20;;;;;;;0.00;0.00;;;15.40;99.90;;;;;;5006046;28;20478;-92
2022/12/31 16:16:57;;;;;;;0.00;0.00;;;15.40;99.90;;;;;;5008532;28;20121;-91
2022/12/31 16:19:44;;;;;;;0.00;0.00;;;15.70;99.90;;;;;;5004459;28;20037;-92
2022/12/31 16:22:15;;;;;;;0.00;0.00;;;15.30;99.90;;;;;;5007604;28;20041;-93
2022/12/31 16:24:41;;;;;;;0.00;0.00;;;;;;;;;;5015954;28;20118;-93
2022/12/31 16:27:11;;;;;;;0.00;0.00;;;15.20;99.90;;;;;;5008075;28;20034;-92
2022/12/31 16:29:45;;;;;;;0.00;0.00;;;15.20;99.90;;;;;;5002511;28;20042;-92
2022/12/31 16:32:15;;;;;;;0.00;0.00;;;15.10;99.90;;;;;;5028018;28;20034;-92
2022/12/31 16:34:40;;;;;;;0.00;0.00;;;15.20;99.90;;;;;;5009304;28;20049;-91
2022/12/31 16:37:15;;;;;;;0.00;0.00;;;15.10;99.90;;;;;;5012167;28;20018;-92
2022/12/31 16:39:55;;;;;;;0.00;0.00;;;14.60;99.90;;;;;;5003101;28;20030;-92
2022/12/31 16:42:24;;;;;;;0.00;0.00;;;15.20;99.90;;;;;;5025745;28;20032;-92
2022/12/31 16:44:51;;;;;;;0.00;0.00;;;15.10;99.90;;;;;;4999842;28;20034;-93
2022/12/31 16:47:30;;;;;;;0.00;0.00;;;15.10;99.90;;;;;;5000793;28;20057;-92
2022/12/31 16:50:02;;;;;;;0.00;0.00;;;15.20;99.90;;;;;;5018861;28;20018;-91
2022/12/31 16:52:36;;;;;;;0.00;0.00;;;15.20;99.90;;;;;;5018696;28;20569;-94
2022/12/31 16:55:18;;;;;;;0.00;0.00;;;15.20;99.90;;;;;;4998615;28;20045;-92
2022/12/31 16:57:47;;;;;;;0.00;0.00;;;15.20;99.90;;;;;;5009333;28;20014;-92
2022/12/31 17:00:17;;;;;;;;;;;15.20;99.90;;;;;;5025492;28;20090;-92
2022/12/31 17:03:00;;;;;;;0.00;0.00;;;15.20;99.90;;;;;;5005199;28;19909;-93
2022/12/31 17:05:26;;;;;;;0.00;0.00;;;;;;;;;;5010713;28;20289;-91
2022/12/31 17:07:53;;;;;;;0.00;0.00;;;;;;;;;;5012233;28;20093;-91
2022/12/31 17:10:19;;;;;;;0.00;0.00;;;;;;;;;;5013960;28;20089;-91
2022/12/31 17:12:51;;;;;;;0.00;0.00;;;15.10;99.90;;;;;;5007639;28;20033;-91
2022/12/31 17:15:37;;;;;;;0.00;0.00;;;15.00;99.90;;;;;;5005466;28;20033;-91
2022/12/31 17:18:03;;;;;;;0.00;0.00;;;15.00;99.90;;;;;;5006513;28;20385;-90
2022/12/31 17:20:32;;;;;;;0.00;0.00;;;15.00;99.90;;;;;;5004914;28;20113;-91
2022/12/31 17:23:00;;;;;;;0.00;0.00;;;15.00;99.90;;;;;;5007465;28;20056;-91
2022/12/31 17:25:30;;;;;;;0.00;0.00;;;15.00;99.90;;;;;;5009030;28;20097;-91
2022/12/31 17:27:59;;;;;;;0.00;0.00;;;14.90;99.90;;;;;;5015040;28;20093;-90
2022/12/31 17:30:31;;;;;;;0.00;0.00;;;14.90;99.90;;;;;;5005591;28;20395;-91
2022/12/31 17:33:10;;;;;;;0.00;0.00;;;14.90;99.90;;;;;;5016867;28;20034;-91
2022/12/31 17:35:41;;;;;;;0.00;0.00;;;14.90;99.90;;;;;;5019243;28;20093;-91
2022/12/31 17:38:22;;;;;;;0.00;0.00;;;14.90;99.90;;;;;;5000523;28;20018;-91
2022/12/31 17:41:04;;;;;;;0.00;0.00;;;14.90;99.90;;;;;;5019264;28;20040;-91
2022/12/31 17:43:34;;;;;;;0.00;0.00;;;14.80;99.90;;;;;;5004161;28;20056;-91
2022/12/31 17:45:59;;;;;;;;;;;13.90;99.90;;;;;;5003478;28;20029;-93
2022/12/31 17:48:25;;;;;;;0.00;0.00;;;;;;;;;;5005580;28;19980;-92
2022/12/31 17:50:53;;;;;;;0.00;0.00;;;14.90;99.90;;;;;;5021635;28;20029;-93
2022/12/31 17:53:20;;;;;;;0.00;0.00;;;14.90;99.90;;;;;;5001081;28;20033;-93
2022/12/31 17:55:48;;;;;;;0.00;0.00;;;15.00;99.90;;;;;;5007317;28;20052;-91
2022/12/31 17:58:39;;;;;;;0.00;0.00;;;15.00;99.90;;;;;;5001228;28;20578;-91
2022/12/31 18:01:07;;;;;;;0.00;0.00;;;15.10;99.90;;;;;;5001503;28;20026;-92
2022/12/31 18:03:33;;;;;;;0.00;0.00;;;;;;;;;;5022338;28;20022;-91
2022/12/31 18:05:59;;;;;;;0.00;0.00;;;;;;;;;;5017132;28;20033;-91
2022/12/31 18:08:25;;;;;;;0.00;0.00;;;;;;;;;;5006051;28;20033;-91
2022/12/31 18:10:52;;;;;;;0.00;0.00;;;15.10;99.90;;;;;;5004171;28;20048;-92
2022/12/31 18:13:20;;;;;;;0.00;0.00;;;14.90;99.90;;;;;;5009399;28;20201;-92
2022/12/31 18:15:46;;;;;;;0.00;0.00;;;;;;;;;;5009764;28;20034;-91
2022/12/31 18:18:24;;;;;;;0.00;0.00;;;15.10;99.90;;;;;;5007493;28;20090;-93
2022/12/31 18:20:53;;;;;;;0.00;0.00;;;15.20;99.90;;;;;;5024079;28;20400;-92
2022/12/31 18:23:26;;;;;;;0.00;0.00;;;15.20;99.90;;;;;;5009319;28;20093;-93
2022/12/31 18:25:52;;;;;;;0.00;0.00;;;;;;;;;;5012064;28;20053;-92
2022/12/31 18:28:18;;;;;;;0.00;0.00;;;;;;;;;;5007799;28;20429;-92
2022/12/31 18:30:45;;;;;;;0.00;0.00;;;15.10;99.90;;;;;;5009199;28;20040;-92
2022/12/31 18:33:12;;;;;;;0.00;0.00;;;15.10;99.90;;;;;;5009748;28;20045;-92
2022/12/31 18:35:39;;;;;;;0.00;0.00;;;;;;;;;;5008763;28;20041;-94
2022/12/31 18:38:15;;;;;;;0.00;0.00;;;15.10;99.90;;;;;;5012530;28;20023;-93
2022/12/31 18:40:45;;;;;;;0.00;0.00;;;15.00;99.90;;;;;;5029775;28;20106;-93
2022/12/31 18:43:18;;;;;;;0.10;0.10;;;16.10;99.90;;;;;;5013316;28;20010;-90
2022/12/31 18:45:45;;;;;;;0.00;0.00;;;15.00;99.90;;;;;;5006250;28;20034;-91
2022/12/31 18:48:12;;;;;;;0.00;0.00;;;;;;;;;;5016576;28;20034;-93
2022/12/31 18:50:38;;;;;;;0.00;0.00;;;;;;;;;;5028892;28;20105;-94
2022/12/31 18:53:04;;;;;;;0.00;0.00;;;;;;;;;;5010094;28;20022;-92
2022/12/31 18:55:39;;;;;;;0.00;0.00;;;15.20;99.90;;;;;;5013249;28;20038;-94
2022/12/31 18:58:05;;;;;;;0.00;0.00;;;;;;;;;;5012514;28;20034;-92
2022/12/31 19:00:32;;;;;;;0.00;0.00;;;;;;;;;;5010435;28;20342;-92
2022/12/31 19:02:58;;;;;;;0.00;0.00;;;;;;;;;;5008057;28;20093;-93
2022/12/31 19:05:29;;;;;;;0.00;0.00;;;15.20;99.90;;;;;;5007231;28;20009;-93
2022/12/31 19:07:55;;;;;;;0.00;0.00;;;;;;;;;;5019559;28;20029;-92
2022/12/31 19:10:21;;;;;;;0.00;0.00;;;;;;;;;;5026707;28;20508;-94
2022/12/31 19:12:48;;;;;;;0.00;0.00;;;;;;;;;;5022965;28;20081;-94
2022/12/31 19:15:26;;;;;;;0.00;0.00;;;15.20;99.90;;;;;;5034948;28;20069;-92
2022/12/31 19:17:53;;;;;;;0.00;0.00;;;;;;;;;;5020726;28;20010;-92
2022/12/31 19:20:19;;;;;;;0.00;0.00;;;;;;;;;;5032492;28;20018;-92
2022/12/31 19:22:45;;;;;;;0.00;0.00;;;;;;;;;;5015611;28;20021;-93
2022/12/31 19:25:22;;;;;;;0.00;0.00;;;15.30;99.90;;;;;;5037348;28;20017;-94
2022/12/31 19:27:48;;;;;;;0.00;0.00;;;;;;;;;;5033393;28;20130;-93
2022/12/31 19:30:22;;;;;;;0.03;0.03;;;15.30;99.90;;;;;;5017620;28;20006;-94
2022/12/31 19:32:48;;;;;;;0.00;0.00;;;;;;;;;;5033107;28;20042;-94
2022/12/31 19:35:14;;;;;;;0.00;0.00;;;15.30;99.90;;;;;;5019849;28;20033;-94
2022/12/31 19:37:41;;;;;;;0.00;0.00;;;15.30;99.90;;;;;;5029338;28;20018;-94
2022/12/31 19:40:17;;;;;;;0.00;0.00;;;15.30;99.90;;;;;;5017944;28;20087;-94
2022/12/31 19:42:43;;;;;;;0.00;0.00;;;;;;;;;;5009202;28;20033;-93
2022/12/31 19:45:14;;;;;;;0.00;0.00;;;15.10;99.90;;;;;;5033819;28;20040;-93
2022/12/31 19:47:40;;;;;;;0.00;0.00;;;;;;;;;;5030153;28;20033;-94
2022/12/31 19:50:06;;;;;;;0.00;0.00;;;15.20;99.90;;;;;;5032142;28;20030;-94
2022/12/31 19:52:32;;;;;;;0.00;0.00;;;;;;;;;;5016999;28;20021;-93
2022/12/31 19:54:58;;;;;;;0.03;0.03;;;;;;;;;;5032460;28;20048;-93
2022/12/31 19:57:24;;;;;;;0.00;0.00;;;;;;;;;;5035455;28;20018;-92
2022/12/31 19:59:50;;;;;;;0.00;0.00;;;;;;;;;;5018653;28;20034;-93
2022/12/31 20:02:16;;;;;;;0.00;0.00;;;;;;;;;;5034178;28;20030;-93
2022/12/31 20:04:42;;;;;;;0.00;0.00;;;;;;;;;;5033481;28;20030;-92
2022/12/31 20:07:08;;;;;;;0.00;0.00;;;;;;;;;;5020430;28;20045;-93
2022/12/31 20:09:34;;;;;;;0.00;0.00;;;;;;;;;;5017551;28;20030;-94
2022/12/31 20:11:59;;;;;;;0.00;0.00;;;15.10;99.90;;;;;;5018219;28;20033;-94
